Bville, New York
Current Conditions -  °F | °C
As of 6:54 PM on Saturday 22 Nov 2014 (Local Time) from KFZY Reporting Station
Overcast Overcast  
Wind Chill: 35°   Ceiling: 1800
Heat Index: 40°   Visibility: 10mi
Dew Point: 35°   Wind: 7mph
Humidity: 83%   Direction: 170°S
Pressure: 30"   Gusts: NA
Location:  43.1825°N, 76.3664°W
Report Text: KFZY 222354Z AUTO 17006KT 10SM OVC018 04/02 A3000 RMK AO2 RAE41 SLP165 P0002 60006 I6000 T00440017 10044 20017 58002
Loading
Personal Weather Stations






























Interactive Weather Map New forecast layout! Learn more

10-Day Weather Forecast

Advertisements
Track Severe Weather on mobile